Time;durP1;ratioP1;P1;durP2;ratioP2;P2;SDS_P1;SDS_P2;PMS_P1;PMS_P2;Temp;Humidity;BMP_temperature;BMP_pressure;BME280_temperature;BME280_humidity;BME280_pressure;Samples;Min_cycle;Max_cycle;Signal;HPM_P1;HPM_P2
2022/03/31 00:02:09;;;;;;;5.35;1.25;;;5.30;99.90;;;;;;4960141;29;20051;-57
2022/03/31 00:04:37;;;;;;;7.45;1.50;;;5.30;99.90;;;;;;4961152;28;20092;-57
2022/03/31 00:07:04;;;;;;;7.40;1.50;;;5.20;99.90;;;;;;4960100;28;20453;-57
2022/03/31 00:09:29;;;;;;;7.13;1.48;;;5.10;99.90;;;;;;4960050;29;20042;-57
2022/03/31 00:11:55;;;;;;;6.57;1.45;;;5.20;99.90;;;;;;4960308;28;20107;-57
2022/03/31 00:14:20;;;;;;;7.03;1.15;;;5.20;99.90;;;;;;4962928;28;20047;-57
2022/03/31 00:16:47;;;;;;;6.13;1.30;;;5.20;99.90;;;;;;4964207;29;20039;-57
2022/03/31 00:19:12;;;;;;;7.45;1.52;;;5.20;99.90;;;;;;4963995;28;20068;-54
2022/03/31 00:21:38;;;;;;;5.43;1.08;;;5.10;99.90;;;;;;4964975;29;20032;-57
2022/03/31 00:24:04;;;;;;;4.25;0.90;;;5.10;99.90;;;;;;4963700;29;20095;-57
2022/03/31 00:26:29;;;;;;;3.58;1.15;;;5.10;99.90;;;;;;4965162;29;20117;-57
2022/03/31 00:28:55;;;;;;;4.68;1.08;;;5.10;99.90;;;;;;4963940;29;20047;-57
2022/03/31 00:31:21;;;;;;;5.43;1.38;;;5.00;99.90;;;;;;4964556;29;20051;-57
2022/03/31 00:33:47;;;;;;;7.25;1.48;;;4.90;99.90;;;;;;4964455;29;20047;-57
2022/03/31 00:36:13;;;;;;;6.57;1.45;;;4.90;99.90;;;;;;4963811;29;20253;-57
2022/03/31 00:38:39;;;;;;;6.95;1.48;;;4.90;99.90;;;;;;4963129;29;20281;-57
2022/03/31 00:41:04;;;;;;;4.20;1.27;;;4.90;99.90;;;;;;4963633;29;20039;-58
2022/03/31 00:43:30;;;;;;;6.78;1.98;;;4.80;99.90;;;;;;4964700;28;20046;-57
2022/03/31 00:45:56;;;;;;;7.28;1.30;;;4.80;99.90;;;;;;4963153;28;20051;-57
2022/03/31 00:48:22;;;;;;;7.35;1.42;;;4.70;99.90;;;;;;4964541;29;20047;-57
2022/03/31 00:50:48;;;;;;;3.38;1.10;;;4.60;99.90;;;;;;4963995;28;20051;-57
2022/03/31 00:53:15;;;;;;;5.00;1.27;;;4.70;99.90;;;;;;4963573;29;20495;-57
2022/03/31 00:55:44;;;;;;;6.18;1.25;;;4.70;99.90;;;;;;4964611;28;20086;-58
2022/03/31 00:58:10;;;;;;;6.72;1.38;;;4.70;99.90;;;;;;4946168;29;20400;-58
2022/03/31 01:00:36;;;;;;;8.57;1.67;;;4.70;99.90;;;;;;4964241;28;20042;-57
2022/03/31 01:03:02;;;;;;;6.10;1.58;;;4.70;99.90;;;;;;4962997;29;20039;-57
2022/03/31 01:05:28;;;;;;;3.78;1.30;;;4.70;99.90;;;;;;4964107;28;20051;-57
2022/03/31 01:07:55;;;;;;;6.00;1.38;;;4.70;99.90;;;;;;4962197;29;20086;-57
2022/03/31 01:10:21;;;;;;;7.13;1.38;;;4.70;99.90;;;;;;4963447;28;20499;-58
2022/03/31 01:12:47;;;;;;;4.65;1.20;;;4.70;99.90;;;;;;4963962;28;20083;-57
2022/03/31 01:15:20;;;;;;;5.03;1.38;;;4.70;99.90;;;;;;4962703;29;20039;-57
2022/03/31 01:17:48;;;;;;;9.02;2.38;;;4.70;99.90;;;;;;4963802;28;20110;-59
2022/03/31 01:20:17;;;;;;;6.57;2.00;;;4.60;99.90;;;;;;4961794;29;20051;-57
2022/03/31 01:22:44;;;;;;;5.18;1.42;;;4.70;99.90;;;;;;4963843;28;20066;-57
2022/03/31 01:25:10;;;;;;;5.80;1.60;;;4.60;99.90;;;;;;4962674;28;20047;-57
2022/03/31 01:27:38;;;;;;;5.68;1.40;;;4.80;99.90;;;;;;4962925;28;20075;-57
2022/03/31 01:30:13;;;;;;;5.30;1.30;;;4.60;99.90;;;;;;4963849;28;20431;-57
2022/03/31 01:32:40;;;;;;;6.30;1.80;;;4.60;99.90;;;;;;4962631;28;20047;-57
2022/03/31 01:35:06;;;;;;;6.68;1.50;;;4.60;99.90;;;;;;4963533;28;20103;-57
2022/03/31 01:37:32;;;;;;;8.63;1.90;;;4.70;99.90;;;;;;4962560;29;20067;-57
2022/03/31 01:39:59;;;;;;;4.47;1.40;;;4.70;99.90;;;;;;4963156;29;20051;-57
2022/03/31 01:42:26;;;;;;;4.43;1.38;;;4.70;99.90;;;;;;4963104;28;20046;-57
2022/03/31 01:44:52;;;;;;;6.30;1.88;;;4.60;99.90;;;;;;4962396;28;20051;-58
2022/03/31 01:47:18;;;;;;;6.82;1.30;;;4.70;99.90;;;;;;4963391;28;20042;-57
2022/03/31 01:49:44;;;;;;;4.53;1.20;;;4.60;99.90;;;;;;4962179;29;20526;-57
2022/03/31 01:52:10;;;;;;;5.13;1.40;;;4.70;99.90;;;;;;4962173;29;20047;-55
2022/03/31 01:54:36;;;;;;;5.22;1.20;;;4.60;99.90;;;;;;4962223;29;20039;-55
2022/03/31 01:57:02;;;;;;;7.85;1.42;;;4.60;99.90;;;;;;4963014;28;20058;-56
2022/03/31 01:59:41;;;;;;;4.38;1.52;;;4.60;99.90;;;;;;4962552;29;20047;-57
2022/03/31 02:02:07;;;;;;;6.35;1.80;;;4.60;99.90;;;;;;4944775;29;20077;-57
2022/03/31 02:04:33;;;;;;;5.88;2.67;;;4.60;99.90;;;;;;4963180;28;20055;-58
2022/03/31 02:06:59;;;;;;;10.80;3.03;;;4.60;99.90;;;;;;4961922;28;20131;-57
2022/03/31 02:09:25;;;;;;;6.32;2.70;;;4.60;99.90;;;;;;4962997;28;20047;-57
2022/03/31 02:11:52;;;;;;;7.40;3.17;;;4.50;99.90;;;;;;4962022;28;20059;-57
2022/03/31 02:14:22;;;;;;;6.50;2.97;;;4.60;99.90;;;;;;4962663;28;20086;-57
2022/03/31 02:16:48;;;;;;;7.50;3.20;;;4.50;99.90;;;;;;4960889;29;20058;-57
2022/03/31 02:19:14;;;;;;;7.22;3.63;;;4.50;99.90;;;;;;4961681;28;20126;-57
2022/03/31 02:21:40;;;;;;;8.38;3.55;;;4.40;99.90;;;;;;4962761;28;20043;-57
2022/03/31 02:24:08;;;;;;;8.52;3.80;;;4.50;99.90;;;;;;4961621;28;20098;-58
2022/03/31 02:26:35;;;;;;;7.95;3.80;;;4.40;99.90;;;;;;4962811;28;20082;-57
2022/03/31 02:29:01;;;;;;;7.95;3.92;;;4.40;99.90;;;;;;4961851;28;20058;-57
2022/03/31 02:31:27;;;;;;;9.00;4.35;;;4.30;99.90;;;;;;4962339;28;20047;-57
2022/03/31 02:33:52;;;;;;;7.90;4.43;;;4.20;99.90;;;;;;4962471;29;20368;-57
2022/03/31 02:36:18;;;;;;;11.52;4.78;;;4.40;99.90;;;;;;4960324;28;20464;-57
2022/03/31 02:38:44;;;;;;;7.90;4.60;;;4.30;99.90;;;;;;4962437;29;20404;-57
2022/03/31 02:41:09;;;;;;;7.88;4.43;;;4.20;99.90;;;;;;4961456;29;20374;-57
2022/03/31 02:43:35;;;;;;;10.30;5.78;;;4.30;99.90;;;;;;4962575;29;20111;-57
2022/03/31 02:46:01;;;;;;;9.43;5.13;;;4.20;99.90;;;;;;4961102;29;20047;-56
2022/03/31 02:48:27;;;;;;;9.00;5.72;;;4.10;99.90;;;;;;4962201;28;20055;-57
2022/03/31 02:50:53;;;;;;;8.90;5.28;;;4.10;99.90;;;;;;4961869;29;20107;-57
2022/03/31 02:56:03;;;;;;;9.85;5.43;;;4.00;99.90;;;;;;4962427;29;20050;-57
2022/03/31 02:58:29;;;;;;;8.52;4.50;;;4.00;99.90;;;;;;4960869;28;20824;-58
2022/03/31 03:00:56;;;;;;;7.93;3.78;;;3.90;99.90;;;;;;4962357;29;20040;-58
2022/03/31 03:03:22;;;;;;;7.93;3.78;;;3.80;99.90;;;;;;4959692;29;20058;-58
2022/03/31 03:05:47;;;;;;;7.45;3.85;;;3.80;99.90;;;;;;4941148;29;20408;-57
2022/03/31 03:08:14;;;;;;;7.90;3.42;;;3.70;99.90;;;;;;4942449;29;20044;-58
2022/03/31 03:10:40;;;;;;;7.68;3.60;;;3.90;99.90;;;;;;4941533;29;20048;-58
2022/03/31 03:13:07;;;;;;;8.82;3.78;;;3.80;99.90;;;;;;4942733;29;20102;-58
2022/03/31 03:15:33;;;;;;;9.38;4.32;;;3.80;99.90;;;;;;4941709;29;20047;-58
2022/03/31 03:17:59;;;;;;;6.82;3.35;;;3.80;99.90;;;;;;4940914;29;20062;-58
2022/03/31 03:20:24;;;;;;;6.97;3.08;;;3.80;99.90;;;;;;4941796;29;20587;-59
2022/03/31 03:22:52;;;;;;;7.53;3.05;;;3.80;99.90;;;;;;4942188;29;20082;-59
2022/03/31 03:25:20;;;;;;;5.82;2.60;;;3.80;99.90;;;;;;4959180;29;20039;-58
2022/03/31 03:27:48;;;;;;;4.80;2.50;;;3.70;99.90;;;;;;4960665;29;20051;-59
2022/03/31 03:30:15;;;;;;;5.78;2.40;;;3.70;99.90;;;;;;4960387;29;20047;-61
2022/03/31 03:32:41;;;;;;;6.75;2.47;;;3.50;99.90;;;;;;4960218;29;20102;-60
2022/03/31 03:35:09;;;;;;;6.68;2.60;;;3.50;99.90;;;;;;4961649;29;20499;-60
2022/03/31 03:37:36;;;;;;;6.03;3.00;;;3.40;99.90;;;;;;4960208;29;20051;-59
2022/03/31 03:40:04;;;;;;;7.50;3.58;;;3.50;99.90;;;;;;4961099;29;20096;-60
2022/03/31 03:42:31;;;;;;;7.82;3.63;;;3.50;99.90;;;;;;4959591;29;20110;-59
2022/03/31 03:44:57;;;;;;;6.28;3.00;;;3.50;99.90;;;;;;4959093;29;20039;-60
2022/03/31 03:47:23;;;;;;;5.97;2.85;;;3.40;99.90;;;;;;4961081;28;20078;-59
2022/03/31 03:49:49;;;;;;;6.47;3.08;;;3.40;99.90;;;;;;4960187;29;20054;-59
2022/03/31 03:52:15;;;;;;;7.07;3.03;;;3.30;99.90;;;;;;4961608;29;20039;-59
2022/03/31 03:54:41;;;;;;;6.82;2.95;;;3.40;99.90;;;;;;4960470;29;20554;-58
2022/03/31 03:57:06;;;;;;;6.38;3.08;;;3.40;99.90;;;;;;4960772;29;20071;-58
2022/03/31 03:59:32;;;;;;;6.80;3.38;;;3.40;99.90;;;;;;4960721;29;20047;-58
2022/03/31 04:01:59;;;;;;;7.82;3.88;;;3.50;99.90;;;;;;4960274;29;20079;-59
2022/03/31 04:04:25;;;;;;;11.27;7.25;;;3.30;99.90;;;;;;4961253;29;20051;-59
2022/03/31 04:06:51;;;;;;;10.82;7.38;;;3.30;99.90;;;;;;4959854;28;20123;-59
2022/03/31 04:09:17;;;;;;;10.32;6.22;;;3.20;99.90;;;;;;4959838;29;20543;-59
2022/03/31 04:11:43;;;;;;;8.45;4.75;;;3.20;99.90;;;;;;4959898;28;20094;-59
2022/03/31 04:14:08;;;;;;;7.80;4.55;;;3.10;99.90;;;;;;4960955;28;20082;-60
2022/03/31 04:16:34;;;;;;;7.95;4.40;;;3.10;99.90;;;;;;4958918;29;20044;-60
2022/03/31 04:19:00;;;;;;;7.43;3.88;;;3.10;99.90;;;;;;4960263;29;20059;-60
2022/03/31 04:21:25;;;;;;;8.65;4.38;;;3.20;99.90;;;;;;4959592;29;20044;-59
2022/03/31 04:23:51;;;;;;;7.25;3.15;;;3.10;99.90;;;;;;4959658;29;20043;-59
2022/03/31 04:26:17;;;;;;;6.93;3.20;;;3.00;99.90;;;;;;4961218;29;20047;-59
2022/03/31 04:28:43;;;;;;;8.00;3.70;;;2.90;99.90;;;;;;4942237;29;20467;-59
2022/03/31 04:31:08;;;;;;;6.30;3.33;;;3.00;99.90;;;;;;4961048;28;20075;-59
2022/03/31 04:33:34;;;;;;;8.88;3.65;;;3.00;99.90;;;;;;4958874;29;20050;-58
2022/03/31 04:36:00;;;;;;;9.18;3.75;;;3.00;99.90;;;;;;4960076;29;20050;-59
2022/03/31 04:38:25;;;;;;;7.82;2.92;;;2.90;99.90;;;;;;4960559;28;20154;-59
2022/03/31 04:40:51;;;;;;;7.80;2.65;;;3.00;99.90;;;;;;4959792;29;20054;-59
2022/03/31 04:43:16;;;;;;;8.00;2.55;;;3.00;99.90;;;;;;4960967;29;20047;-59
2022/03/31 04:45:42;;;;;;;7.00;2.30;;;2.90;99.90;;;;;;4959305;28;20063;-59
2022/03/31 04:48:08;;;;;;;7.32;2.40;;;3.00;99.90;;;;;;4959456;29;20043;-59
2022/03/31 04:50:34;;;;;;;7.25;2.42;;;3.00;99.90;;;;;;4959962;29;20082;-58
2022/03/31 04:52:59;;;;;;;6.07;2.38;;;2.90;99.90;;;;;;4958797;29;20043;-59
2022/03/31 04:55:25;;;;;;;7.38;2.78;;;2.90;99.90;;;;;;4960731;28;20460;-60
2022/03/31 04:57:52;;;;;;;8.23;2.80;;;3.00;99.90;;;;;;4959522;29;20075;-60
2022/03/31 05:00:18;;;;;;;7.22;2.80;;;3.00;99.90;;;;;;4962918;28;20636;-59
2022/03/31 05:02:43;;;;;;;8.88;3.40;;;2.90;99.90;;;;;;4963009;29;20047;-59
2022/03/31 05:05:09;;;;;;;7.75;2.70;;;3.00;99.90;;;;;;4964257;29;20099;-59
2022/03/31 05:07:35;;;;;;;10.18;3.15;;;3.00;99.90;;;;;;4946319;29;20055;-59
2022/03/31 05:10:01;;;;;;;7.15;3.10;;;3.00;99.90;;;;;;4963570;29;20102;-59
2022/03/31 05:12:28;;;;;;;6.13;2.53;;;3.00;99.90;;;;;;4963724;29;20496;-58
2022/03/31 05:14:53;;;;;;;5.72;2.90;;;3.20;99.90;;;;;;4962988;28;20084;-58
2022/03/31 05:17:19;;;;;;;8.15;3.75;;;3.10;99.90;;;;;;4963846;29;20047;-58
2022/03/31 05:19:45;;;;;;;8.88;3.22;;;3.20;99.90;;;;;;4962614;29;20055;-58
2022/03/31 05:22:10;;;;;;;8.73;3.00;;;3.20;99.90;;;;;;4963968;29;20066;-58
2022/03/31 05:24:36;;;;;;;6.88;2.75;;;3.20;99.90;;;;;;4962876;29;20155;-59
2022/03/31 05:27:02;;;;;;;6.85;3.00;;;3.20;99.90;;;;;;4962222;29;20126;-60
2022/03/31 05:29:28;;;;;;;6.75;2.90;;;3.30;99.90;;;;;;4963373;29;20043;-59
2022/03/31 05:31:53;;;;;;;6.72;3.58;;;3.20;99.90;;;;;;4961442;29;20055;-59
2022/03/31 05:34:21;;;;;;;6.65;3.40;;;3.20;99.90;;;;;;4963718;28;20089;-59
2022/03/31 05:36:47;;;;;;;6.40;3.45;;;3.30;99.90;;;;;;4962256;29;20067;-59
2022/03/31 05:39:13;;;;;;;6.90;3.60;;;3.30;99.90;;;;;;4963145;29;20047;-59
2022/03/31 05:41:38;;;;;;;8.38;4.35;;;3.20;99.90;;;;;;4962387;28;20047;-59
2022/03/31 05:44:04;;;;;;;16.58;8.95;;;3.30;99.90;;;;;;4963114;29;20047;-59
2022/03/31 05:46:30;;;;;;;10.95;6.28;;;3.30;99.90;;;;;;4962737;29;20145;-59
2022/03/31 05:48:56;;;;;;;9.63;6.18;;;3.40;99.90;;;;;;4962564;29;20039;-59
2022/03/31 05:51:21;;;;;;;9.73;6.18;;;3.30;99.90;;;;;;4963245;28;20047;-58
2022/03/31 05:53:47;;;;;;;11.00;7.22;;;3.30;99.90;;;;;;4961933;28;20055;-59
2022/03/31 05:56:13;;;;;;;9.88;6.35;;;3.40;99.90;;;;;;4963430;29;20890;-56
2022/03/31 05:58:39;;;;;;;9.32;6.65;;;3.30;99.90;;;;;;4962030;29;20089;-59
2022/03/31 06:01:05;;;;;;;9.52;6.15;;;3.40;99.90;;;;;;4963091;29;20563;-58
2022/03/31 06:03:31;;;;;;;8.52;5.65;;;3.40;99.90;;;;;;4962413;28;20047;-58
2022/03/31 06:05:57;;;;;;;8.68;4.90;;;3.40;99.90;;;;;;4962461;29;20086;-58
2022/03/31 06:08:23;;;;;;;7.45;4.22;;;3.50;99.90;;;;;;4963013;28;20055;-58
2022/03/31 06:10:49;;;;;;;6.95;4.50;;;3.40;99.90;;;;;;4959385;28;20040;-58
2022/03/31 06:13:15;;;;;;;6.85;3.90;;;3.40;99.90;;;;;;4962802;29;20074;-59
2022/03/31 06:15:40;;;;;;;6.78;4.50;;;3.50;99.90;;;;;;4944031;29;20130;-56
2022/03/31 06:18:09;;;;;;;7.68;5.15;;;3.40;99.90;;;;;;4961511;29;20083;-58
2022/03/31 06:20:35;;;;;;;7.60;4.57;;;3.40;99.90;;;;;;4960771;29;20043;-58
2022/03/31 06:23:02;;;;;;;7.03;4.10;;;3.40;99.90;;;;;;4962263;28;20108;-58
2022/03/31 06:25:28;;;;;;;7.43;4.78;;;3.40;99.90;;;;;;4961248;29;20055;-58
2022/03/31 06:27:54;;;;;;;6.65;4.22;;;3.40;99.90;;;;;;4961402;29;20523;-58
2022/03/31 06:30:20;;;;;;;7.55;4.32;;;3.30;99.90;;;;;;4962937;29;20043;-58
2022/03/31 06:32:46;;;;;;;6.60;4.10;;;3.30;99.90;;;;;;4961497;29;20168;-58
2022/03/31 06:35:14;;;;;;;7.20;4.53;;;3.40;99.90;;;;;;4961260;29;20077;-58
2022/03/31 06:37:47;;;;;;;8.75;5.40;;;3.40;99.90;;;;;;4961653;28;20579;-58
2022/03/31 06:40:15;;;;;;;7.60;4.70;;;3.50;99.90;;;;;;4961714;28;20469;-58
2022/03/31 06:42:42;;;;;;;7.00;4.25;;;3.40;99.90;;;;;;4960701;29;20047;-58
2022/03/31 06:45:12;;;;;;;7.43;4.80;;;3.40;99.90;;;;;;4961235;28;20046;-58
2022/03/31 06:47:43;;;;;;;7.10;4.88;;;3.50;99.90;;;;;;4960903;29;20047;-58
2022/03/31 06:50:09;;;;;;;7.47;4.38;;;3.40;99.90;;;;;;4961441;28;20443;-58
2022/03/31 06:52:35;;;;;;;7.68;4.85;;;3.60;99.90;;;;;;4961792;28;20071;-58
2022/03/31 06:55:01;;;;;;;8.65;5.32;;;3.40;99.90;;;;;;4961620;28;20412;-57
2022/03/31 06:57:27;;;;;;;7.55;4.80;;;3.50;99.90;;;;;;4961345;28;20082;-58
2022/03/31 06:59:52;;;;;;;7.70;5.25;;;3.50;99.90;;;;;;4961698;29;20050;-58
2022/03/31 07:02:18;;;;;;;7.63;4.55;;;3.50;99.90;;;;;;4959533;29;20156;-58
2022/03/31 07:04:44;;;;;;;8.00;5.22;;;3.50;99.90;;;;;;4961035;29;20051;-58
2022/03/31 07:07:09;;;;;;;8.80;4.90;;;3.40;99.90;;;;;;4947242;29;20043;-57
2022/03/31 07:09:35;;;;;;;7.95;4.90;;;3.50;99.90;;;;;;4947304;29;20048;-58
2022/03/31 07:12:01;;;;;;;8.25;5.18;;;3.50;99.90;;;;;;4937986;29;20055;-57
2022/03/31 07:14:28;;;;;;;8.80;5.75;;;3.50;99.90;;;;;;4938152;29;20047;-58
2022/03/31 07:16:54;;;;;;;8.75;5.75;;;3.60;99.90;;;;;;4938675;29;20072;-58
2022/03/31 07:19:19;;;;;;;8.43;5.53;;;3.50;99.90;;;;;;4937511;29;20071;-59
2022/03/31 07:21:45;;;;;;;9.30;6.10;;;3.50;99.90;;;;;;4938741;29;20059;-59
2022/03/31 07:24:11;;;;;;;9.55;6.25;;;3.60;99.90;;;;;;4945859;29;20062;-58
2022/03/31 07:26:37;;;;;;;9.98;6.70;;;3.60;99.90;;;;;;4956869;29;20035;-59
2022/03/31 07:29:03;;;;;;;8.88;6.07;;;3.50;99.90;;;;;;4955623;29;20058;-59
2022/03/31 07:31:29;;;;;;;9.00;5.88;;;3.50;99.90;;;;;;4957382;29;20610;-59
2022/03/31 07:33:56;;;;;;;8.68;5.78;;;3.60;99.90;;;;;;4955905;28;20396;-59
2022/03/31 07:36:22;;;;;;;9.00;6.20;;;3.50;99.90;;;;;;4948719;28;20254;-58
2022/03/31 07:38:48;;;;;;;9.05;6.18;;;3.90;99.90;;;;;;4937887;29;20597;-59
2022/03/31 07:41:17;;;;;;;10.15;6.38;;;3.50;99.90;;;;;;4936551;29;20107;-57
2022/03/31 07:43:43;;;;;;;9.07;6.40;;;3.50;99.90;;;;;;4945576;29;20082;-58
2022/03/31 07:46:09;;;;;;;9.15;6.43;;;3.60;99.90;;;;;;4957244;28;20050;-58
2022/03/31 07:48:35;;;;;;;8.85;6.30;;;3.50;99.90;;;;;;4959623;29;20079;-59
2022/03/31 07:51:01;;;;;;;9.40;6.18;;;3.50;99.90;;;;;;4959692;29;20058;-58
2022/03/31 07:53:27;;;;;;;10.35;6.65;;;3.50;99.90;;;;;;4958602;28;20099;-58
2022/03/31 07:55:54;;;;;;;9.60;6.28;;;3.50;99.90;;;;;;4959911;28;20047;-58
2022/03/31 07:58:20;;;;;;;11.35;7.10;;;3.50;99.90;;;;;;4959209;28;20050;-58
2022/03/31 08:00:50;;;;;;;12.43;7.43;;;3.40;99.90;;;;;;4960678;29;20127;-58
2022/03/31 08:03:17;;;;;;;9.55;6.50;;;3.50;99.90;;;;;;4958064;29;20054;-58
2022/03/31 08:05:43;;;;;;;9.38;6.65;;;3.40;99.90;;;;;;4959803;28;20047;-58
2022/03/31 08:08:09;;;;;;;10.77;7.15;;;3.50;99.90;;;;;;4960071;29;20039;-59
2022/03/31 08:10:35;;;;;;;10.68;6.85;;;3.70;99.90;;;;;;4959154;29;20050;-59
2022/03/31 08:13:01;;;;;;;10.57;7.25;;;3.40;99.90;;;;;;4960376;28;20055;-59
2022/03/31 08:15:27;;;;;;;11.45;6.97;;;3.30;99.90;;;;;;4958880;28;20044;-58
2022/03/31 08:17:53;;;;;;;10.82;7.07;;;3.30;99.90;;;;;;4959967;28;20040;-58
2022/03/31 08:20:19;;;;;;;11.88;7.32;;;3.30;99.90;;;;;;4959409;28;20055;-59
2022/03/31 08:22:45;;;;;;;10.13;6.55;;;3.30;99.90;;;;;;4959717;28;20055;-59
2022/03/31 08:25:13;;;;;;;10.55;6.65;;;3.30;99.90;;;;;;4958500;29;20044;-58
2022/03/31 08:27:39;;;;;;;10.60;6.88;;;3.40;99.90;;;;;;4959217;28;20091;-58
2022/03/31 08:30:08;;;;;;;10.70;6.53;;;3.30;99.90;;;;;;4960215;28;20511;-59
2022/03/31 08:32:36;;;;;;;8.43;5.53;;;3.30;99.90;;;;;;4958708;28;20054;-58
2022/03/31 08:35:08;;;;;;;9.00;5.00;;;3.70;99.90;;;;;;4961930;28;20062;-58
2022/03/31 08:37:35;;;;;;;8.85;4.90;;;3.20;99.90;;;;;;4924661;29;1098066;-58
2022/03/31 08:40:01;;;;;;;9.00;5.28;;;3.20;99.90;;;;;;4964126;28;20154;-58
2022/03/31 08:42:27;;;;;;;9.57;5.55;;;3.40;99.90;;;;;;4963156;29;20061;-58
2022/03/31 08:44:57;;;;;;;11.45;7.05;;;3.30;99.90;;;;;;4963462;29;20066;-58
2022/03/31 08:47:23;;;;;;;11.18;7.15;;;3.40;99.90;;;;;;4964528;28;20047;-58
2022/03/31 08:49:50;;;;;;;10.82;6.65;;;3.40;99.90;;;;;;4961920;29;20566;-59
2022/03/31 08:52:15;;;;;;;12.13;7.25;;;3.30;99.90;;;;;;4963431;29;20051;-59
2022/03/31 08:54:43;;;;;;;10.50;6.78;;;3.40;99.90;;;;;;4963681;28;20126;-59
2022/03/31 08:57:08;;;;;;;11.00;6.60;;;3.30;99.90;;;;;;4963869;29;20095;-60
2022/03/31 08:59:34;;;;;;;10.35;6.38;;;3.40;99.90;;;;;;4963996;29;20081;-59
2022/03/31 09:02:00;;;;;;;9.50;5.90;;;3.20;99.90;;;;;;4963178;29;20039;-59
2022/03/31 09:04:26;;;;;;;10.32;6.65;;;3.10;99.90;;;;;;4964318;28;20123;-59
2022/03/31 09:07:07;;;;;;;9.80;6.30;;;3.20;99.90;;;;;;4963264;28;20097;-58
2022/03/31 09:09:47;;;;;;;9.65;5.82;;;3.20;99.90;;;;;;4964080;28;20106;-58
2022/03/31 09:12:13;;;;;;;9.23;5.25;;;3.10;99.90;;;;;;4963609;28;20074;-59
2022/03/31 09:14:39;;;;;;;8.80;5.47;;;3.20;99.90;;;;;;4963263;28;20039;-59
2022/03/31 09:17:13;;;;;;;10.80;6.38;;;3.00;99.90;;;;;;4963810;29;20259;-59
2022/03/31 09:19:39;;;;;;;8.63;5.50;;;3.00;99.90;;;;;;4962921;28;20051;-59
2022/03/31 09:22:05;;;;;;;9.95;6.50;;;3.00;99.90;;;;;;4964214;28;20042;-59
2022/03/31 09:24:31;;;;;;;9.05;5.60;;;2.90;99.90;;;;;;4962754;29;20043;-59
2022/03/31 09:26:59;;;;;;;7.70;4.63;;;3.10;99.90;;;;;;4962051;29;20099;-60
2022/03/31 09:29:30;;;;;;;7.85;5.18;;;2.90;99.90;;;;;;4963501;28;20095;-59
2022/03/31 09:32:06;;;;;;;9.00;4.50;;;2.80;99.90;;;;;;4962639;28;20044;-60
2022/03/31 09:34:47;;;;;;;7.63;4.68;;;2.90;99.90;;;;;;4964024;28;20043;-60
2022/03/31 09:37:15;;;;;;;8.25;4.60;;;2.90;99.90;;;;;;4962350;28;20082;-60
2022/03/31 09:39:41;;;;;;;7.30;4.55;;;2.90;99.90;;;;;;4963387;28;20044;-60
2022/03/31 09:42:14;;;;;;;7.65;4.40;;;2.90;99.90;;;;;;4961624;29;20051;-60
2022/03/31 09:44:42;;;;;;;7.90;4.38;;;2.60;99.90;;;;;;4961444;29;20055;-60
2022/03/31 09:47:09;;;;;;;8.38;4.80;;;2.70;99.90;;;;;;4963338;28;20043;-60
2022/03/31 09:49:35;;;;;;;7.70;4.65;;;2.70;99.90;;;;;;4960676;29;20047;-60
2022/03/31 09:52:04;;;;;;;8.68;4.95;;;2.60;99.90;;;;;;4963504;28;20059;-60
2022/03/31 09:54:32;;;;;;;8.10;5.18;;;2.50;99.90;;;;;;4962595;28;20039;-59
2022/03/31 09:57:00;;;;;;;8.07;4.65;;;2.30;99.90;;;;;;4963041;28;20043;-60
2022/03/31 09:59:34;;;;;;;7.85;4.60;;;2.30;99.90;;;;;;4963047;28;20050;-60
2022/03/31 10:02:01;;;;;;;8.73;5.18;;;2.30;99.90;;;;;;4960776;29;20084;-60
2022/03/31 10:04:27;;;;;;;8.00;4.47;;;2.30;99.90;;;;;;4963309;28;20071;-58
2022/03/31 10:06:53;;;;;;;7.57;4.75;;;2.20;99.90;;;;;;4962070;28;20044;-59
2022/03/31 10:09:19;;;;;;;8.60;4.85;;;2.20;99.90;;;;;;4963345;29;20046;-58
2022/03/31 10:11:55;;;;;;;8.18;4.60;;;2.10;99.90;;;;;;4962241;28;20039;-58
2022/03/31 10:15:00;;;;;;;8.25;4.45;;;2.10;99.90;;;;;;4962491;28;20055;-59
2022/03/31 10:17:28;;;;;;;8.93;4.90;;;2.10;99.90;;;;;;4961592;29;20051;-58
2022/03/31 10:20:09;;;;;;;8.43;4.53;;;2.10;99.90;;;;;;4961403;28;20102;-58
2022/03/31 10:25:20;;;;;;;7.65;4.50;;;1.90;99.90;;;;;;4962342;29;20337;-57
2022/03/31 10:27:46;;;;;;;8.40;4.90;;;1.90;99.90;;;;;;4951195;28;20048;-56
2022/03/31 10:30:14;;;;;;;10.43;5.10;;;1.90;99.90;;;;;;4943789;29;20071;-57
2022/03/31 10:32:57;;;;;;;8.60;5.72;;;1.80;99.90;;;;;;4942132;29;20051;-56
2022/03/31 10:35:29;;;;;;;8.05;4.88;;;1.80;99.90;;;;;;4943150;29;20134;-58
2022/03/31 10:37:57;;;;;;;7.88;5.30;;;1.90;99.90;;;;;;4944924;28;20100;-58
2022/03/31 10:40:34;;;;;;;7.72;4.70;;;1.70;99.90;;;;;;4967720;28;20121;-58
2022/03/31 10:43:01;;;;;;;8.90;4.30;;;1.70;99.90;;;;;;4981979;28;20094;-58
2022/03/31 10:45:35;;;;;;;7.78;5.00;;;1.70;99.90;;;;;;4980580;28;20074;-57
2022/03/31 10:48:18;;;;;;;7.80;4.45;;;1.80;99.90;;;;;;4981824;28;20051;-58
2022/03/31 10:50:44;;;;;;;;;;;1.70;99.90;;;;;;4981810;28;20130;-58
2022/03/31 10:53:10;;;;;;;8.32;4.38;;;1.80;99.90;;;;;;4980901;28;19922;-58
2022/03/31 10:55:42;;;;;;;8.88;4.97;;;1.90;99.90;;;;;;4981467;28;20544;-58
2022/03/31 10:58:29;;;;;;;9.48;4.95;;;1.80;99.90;;;;;;4978120;28;20060;-58
2022/03/31 11:00:57;;;;;;;7.22;4.20;;;1.80;99.90;;;;;;4968984;28;20123;-59
2022/03/31 11:03:23;;;;;;;8.15;4.78;;;1.90;99.90;;;;;;4960635;29;20047;-59
2022/03/31 11:05:50;;;;;;;10.02;4.45;;;1.80;99.90;;;;;;4959590;29;20058;-58
2022/03/31 11:08:17;;;;;;;12.55;4.60;;;1.70;99.90;;;;;;4962061;28;20043;-59
2022/03/31 11:10:54;;;;;;;7.00;4.05;;;1.90;99.90;;;;;;4959351;29;20062;-59
2022/03/31 11:13:35;;;;;;;8.73;4.35;;;1.80;99.90;;;;;;4961791;28;20153;-60
2022/03/31 11:16:05;;;;;;;7.20;4.05;;;1.90;99.90;;;;;;4960355;28;20051;-59
2022/03/31 11:18:30;;;;;;;8.43;4.30;;;1.90;99.90;;;;;;4961095;29;20043;-60
2022/03/31 11:21:02;;;;;;;8.70;4.68;;;1.90;99.90;;;;;;4961562;28;20534;-60
2022/03/31 11:23:30;;;;;;;7.22;4.57;;;1.90;99.90;;;;;;4960319;28;20039;-60
2022/03/31 11:25:56;;;;;;;9.18;4.78;;;2.10;99.90;;;;;;4961759;28;20154;-59
2022/03/31 11:28:22;;;;;;;7.32;4.28;;;1.90;99.90;;;;;;4960548;28;20049;-60
2022/03/31 11:30:49;;;;;;;8.48;4.50;;;2.00;99.90;;;;;;4961741;28;20054;-60
2022/03/31 11:33:16;;;;;;;7.75;4.07;;;2.10;99.90;;;;;;4960784;29;20051;-60
2022/03/31 11:35:43;;;;;;;6.90;3.78;;;2.00;99.90;;;;;;4960653;28;20057;-60
2022/03/31 11:38:17;;;;;;;6.72;4.22;;;1.90;99.90;;;;;;4960759;29;20055;-60
2022/03/31 11:40:48;;;;;;;9.88;4.47;;;2.00;99.90;;;;;;4960158;28;20047;-60
2022/03/31 11:43:18;;;;;;;7.20;4.28;;;1.90;99.90;;;;;;4961638;28;20039;-60
2022/03/31 11:45:47;;;;;;;8.82;4.53;;;1.70;99.90;;;;;;4959980;28;20051;-60
2022/03/31 11:48:17;;;;;;;9.25;4.15;;;1.90;99.90;;;;;;4961122;29;20082;-59
2022/03/31 11:50:57;;;;;;;10.55;4.30;;;1.80;99.90;;;;;;4960611;28;20078;-59
2022/03/31 11:53:26;;;;;;;7.50;4.45;;;1.70;99.90;;;;;;4958919;29;20055;-59
2022/03/31 11:56:01;;;;;;;8.68;4.30;;;1.80;99.90;;;;;;4961443;28;20089;-60
2022/03/31 11:58:27;;;;;;;8.02;4.65;;;1.70;99.90;;;;;;4959837;29;20075;-60
2022/03/31 12:00:54;;;;;;;9.25;4.80;;;1.60;99.90;;;;;;4960969;29;20499;-59
2022/03/31 12:03:20;;;;;;;13.60;5.57;;;1.60;99.90;;;;;;4960482;28;20067;-59
2022/03/31 12:05:59;;;;;;;11.30;4.80;;;1.60;99.90;;;;;;4960211;28;20051;-59
2022/03/31 12:08:26;;;;;;;10.35;6.03;;;1.60;99.90;;;;;;4960615;28;20035;-59
2022/03/31 12:10:53;;;;;;;10.48;6.53;;;1.70;99.90;;;;;;4957877;29;20054;-59
2022/03/31 12:13:21;;;;;;;8.75;5.88;;;1.50;99.90;;;;;;4959946;29;20054;-59
2022/03/31 12:15:47;;;;;;;8.50;4.82;;;1.60;99.90;;;;;;4959994;28;20047;-59
2022/03/31 12:18:18;;;;;;;9.65;5.03;;;1.50;99.90;;;;;;4960377;29;20502;-59
2022/03/31 12:20:46;;;;;;;8.68;4.57;;;1.40;99.90;;;;;;4960697;28;20134;-59
2022/03/31 12:23:21;;;;;;;8.80;4.68;;;1.50;99.90;;;;;;4959868;28;20043;-60
2022/03/31 12:25:48;;;;;;;11.13;5.28;;;1.30;99.90;;;;;;4961039;28;20062;-59
2022/03/31 12:28:14;;;;;;;12.43;7.63;;;1.40;99.90;;;;;;4958134;29;20043;-59
2022/03/31 12:30:48;;;;;;;11.88;6.18;;;1.50;99.90;;;;;;4959345;29;20043;-59
2022/03/31 12:33:26;;;;;;;11.07;5.72;;;1.40;99.90;;;;;;4960051;28;20043;-58
2022/03/31 12:36:00;;;;;;;8.93;5.00;;;1.40;99.90;;;;;;4960044;28;20055;-58
2022/03/31 12:38:42;;;;;;;9.48;4.80;;;1.60;99.90;;;;;;4960643;28;20055;-59
2022/03/31 12:41:13;;;;;;;13.02;5.30;;;1.60;99.90;;;;;;4959647;29;20073;-59
2022/03/31 12:43:39;;;;;;;9.35;5.32;;;1.40;99.90;;;;;;4960367;29;20043;-59
2022/03/31 12:46:17;;;;;;;8.20;4.82;;;1.60;99.90;;;;;;4959789;29;20039;-58
2022/03/31 12:49:02;;;;;;;7.13;4.75;;;1.40;99.90;;;;;;4959764;28;20054;-59
2022/03/31 12:51:28;;;;;;;7.75;4.78;;;1.60;99.90;;;;;;4960938;28;20043;-59
2022/03/31 12:53:54;;;;;;;10.88;5.20;;;1.40;99.90;;;;;;4959223;28;20114;-58
2022/03/31 12:56:28;;;;;;;11.55;6.28;;;1.50;99.90;;;;;;4960717;29;20451;-58
2022/03/31 12:58:55;;;;;;;9.20;5.28;;;1.50;99.90;;;;;;4959877;28;20051;-58
2022/03/31 13:01:25;;;;;;;8.35;5.35;;;1.60;99.90;;;;;;4959872;28;20051;-58
2022/03/31 13:03:52;;;;;;;9.90;5.28;;;1.50;99.90;;;;;;4960443;29;20039;-58